< Typhoon 198515 1985 Season Typhoon 198517 >
Typhoon 198516 (TESS)
General InformationTrack Information on Google MapsDetailed Wind InformationList of All Images || Disaster Info.ResourceGoogle EarthGE AnimationAtom FeedGeoJSON
Detalied Best Track (Time Zone = UTC)
Year Month Day Hour Lat. Long. Pressure (hPa) Wind (kt) Class Image Chart
1985 9 1 00 15.1 133.0 1004 0 2 Image Chart
1985 9 1 06 15.0 131.0 1002 0 2 Image Chart
1985 9 1 12 14.9 129.4 1000 40 3 Image Chart
1985 9 1 18 14.8 127.7 996 45 3 Image Chart
1985 9 2 00 14.7 126.4 994 45 3 Image Chart
1985 9 2 06 14.8 125.3 990 45 3 Image Chart
1985 9 2 12 15.0 124.4 985 50 4 Image Chart
1985 9 2 18 15.2 123.6 985 55 4 Image Chart
1985 9 3 00 15.6 122.9 985 60 4 Image Chart
1985 9 3 06 16.5 122.2 985 55 4 Image Chart
1985 9 3 12 17.4 121.0 985 55 4 Image Chart
1985 9 3 18 17.6 119.8 985 55 4 Image Chart
1985 9 4 00 18.0 118.5 985 55 4 Image Chart
1985 9 4 06 18.5 117.1 980 50 4 Image Chart
1985 9 4 12 18.9 115.9 980 55 4 Image Chart
1985 9 4 18 19.1 114.9 980 60 4 Image Chart
1985 9 5 00 19.4 114.0 975 60 4 Image Chart
1985 9 5 06 19.9 113.4 970 70 5 Image Chart
1985 9 5 12 20.6 113.1 970 70 5 Image Chart
1985 9 5 18 21.3 112.6 970 70 5 Image Chart
1985 9 6 00 21.9 112.0 975 65 5 Image Chart
1985 9 6 06 22.5 111.3 980 55 4 Image Chart
1985 9 6 12 23.4 110.6 990 45 3 Image Chart
1985 9 6 18 24.0 110.0 992 0 2 Image Chart
1985 9 7 00 24.8 109.0 996 0 2 Image Chart
1985 9 7 06 24.8 108.0 998 0 2 Image Chart
1985 9 7 12 24.3 107.0 1000 0 2 Image Chart
1985 9 7 18 24.0 106.0 1000 0 2 Image Chart
1985 9 8 00 24.0 105.0 1000 0 2 Image Chart
1985 9 8 06 24.0 104.3 1000 0 2 Image Chart
1985 9 8 12 24.0 103.7 1002 0 2 Image Chart
1985 9 8 18 24.0 102.8 1004 0 2 Image Chart
1985 9 9 00 24.0 102.0 1004 0 2 Image Chart
Japan Meteorological Agency Best Track Data | Correction Date : 1992-10-21
< Typhoon 198515 1985 Season Typhoon 198517 >

Help